Time;durP1;ratioP1;P1;durP2;ratioP2;P2;SDS_P1;SDS_P2;PMS_P1;PMS_P2;Temp;Humidity;BMP_temperature;BMP_pressure;BME280_temperature;BME280_humidity;BME280_pressure;Samples;Min_cycle;Max_cycle;Signal;HPM_P1;HPM_P2
2022/10/14 00:01:18;;;;;;;389.77;35.80;;;11.50;99.90;;;;;;5052949;28;20036;-80
2022/10/14 00:03:44;;;;;;;239.88;26.48;;;11.50;99.90;;;;;;5052772;28;20049;-81
2022/10/14 00:06:13;;;;;;;237.93;25.80;;;11.50;99.90;;;;;;5053098;28;20036;-81
2022/10/14 00:08:40;;;;;;;423.10;36.17;;;11.50;99.90;;;;;;5053370;28;20041;-81
2022/10/14 00:11:15;;;;;;;235.77;26.75;;;11.50;99.90;;;;;;5052902;28;20079;-80
2022/10/14 00:13:41;;;;;;;311.92;28.33;;;11.50;99.90;;;;;;5052367;28;20059;-81
2022/10/14 00:16:21;;;;;;;268.33;27.15;;;11.50;99.90;;;;;;5052795;28;20494;-80
2022/10/14 00:18:47;;;;;;;427.42;34.60;;;11.50;99.90;;;;;;5053216;28;20029;-81
2022/10/14 00:21:13;;;;;;;326.27;27.58;;;11.50;99.90;;;;;;5052477;28;20128;-81
2022/10/14 00:23:39;;;;;;;300.98;25.77;;;11.50;99.90;;;;;;5052600;28;20048;-80
2022/10/14 00:26:05;;;;;;;340.70;31.95;;;11.50;99.90;;;;;;5052624;28;20040;-80
2022/10/14 00:28:31;;;;;;;475.08;37.10;;;11.50;99.90;;;;;;5053041;28;20136;-80
2022/10/14 00:31:00;;;;;;;277.85;26.10;;;11.50;99.90;;;;;;5035928;28;20033;-80
2022/10/14 00:33:26;;;;;;;99.97;19.70;;;11.50;99.90;;;;;;5053000;28;20414;-80
2022/10/14 00:35:54;;;;;;;174.02;21.95;;;11.40;99.90;;;;;;5050794;28;20087;-80
2022/10/14 00:38:19;;;;;;;152.55;21.00;;;11.40;99.90;;;;;;5045199;28;20072;-80
2022/10/14 00:40:45;;;;;;;179.18;23.10;;;11.40;99.90;;;;;;5052658;28;20068;-80
2022/10/14 00:43:13;;;;;;;155.88;20.33;;;11.40;99.90;;;;;;5051753;28;20094;-80
2022/10/14 00:45:39;;;;;;;81.15;16.48;;;11.50;99.90;;;;;;5035672;28;20502;-80
2022/10/14 00:48:05;;;;;;;44.65;15.25;;;11.40;99.90;;;;;;5051963;28;20068;-80
2022/10/14 00:50:32;;;;;;;141.20;18.65;;;11.40;99.90;;;;;;5051923;28;20047;-80
2022/10/14 00:52:58;;;;;;;158.30;19.25;;;11.40;99.90;;;;;;5035106;28;20029;-80
2022/10/14 00:55:25;;;;;;;173.02;18.30;;;11.40;99.90;;;;;;5052415;28;20441;-80
2022/10/14 00:57:50;;;;;;;115.88;15.82;;;11.40;99.90;;;;;;5034934;28;20153;-80
2022/10/14 01:00:19;;;;;;;30.55;13.60;;;11.40;99.90;;;;;;5051925;28;20044;-80
2022/10/14 01:02:46;;;;;;;53.70;14.75;;;11.40;99.90;;;;;;5051430;28;20167;-81
2022/10/14 01:05:14;;;;;;;97.32;17.95;;;11.40;99.90;;;;;;5051766;28;20033;-81
2022/10/14 01:07:53;;;;;;;61.90;15.45;;;11.40;99.90;;;;;;5035347;28;20048;-81
2022/10/14 01:10:48;;;;;;;275.17;23.83;;;11.40;99.90;;;;;;5021762;28;20454;-81
2022/10/14 01:13:46;;;;;;;125.30;18.42;;;11.40;99.90;;;;;;5034562;28;20041;-81
2022/10/14 01:16:29;;;;;;;85.28;16.98;;;11.30;99.90;;;;;;5034865;28;20056;-80
2022/10/14 01:19:09;;;;;;;55.92;14.55;;;11.30;99.90;;;;;;5051919;28;20037;-80
2022/10/14 01:21:50;;;;;;;196.90;17.40;;;11.30;99.90;;;;;;5051347;28;20041;-81
2022/10/14 01:24:33;;;;;;;181.90;18.02;;;11.30;99.90;;;;;;5051424;28;20037;-80
2022/10/14 01:27:15;;;;;;;64.32;14.48;;;11.30;99.90;;;;;;5051611;28;20037;-81
2022/10/14 01:29:53;;;;;;;81.07;13.80;;;11.30;99.90;;;;;;5034636;28;20052;-80
2022/10/14 01:32:38;;;;;;;160.98;17.42;;;11.30;99.90;;;;;;5050810;28;20033;-80
2022/10/14 01:35:12;;;;;;;121.40;15.55;;;11.20;99.90;;;;;;5024004;28;20083;-80
2022/10/14 01:37:44;;;;;;;97.95;14.52;;;11.20;99.90;;;;;;5051602;28;20065;-80
2022/10/14 01:40:16;;;;;;;46.75;12.20;;;11.20;99.90;;;;;;5034350;28;20498;-80
2022/10/14 01:42:44;;;;;;;157.95;16.40;;;11.20;99.90;;;;;;5051075;28;20041;-80
2022/10/14 01:45:22;;;;;;;156.80;16.23;;;11.20;99.90;;;;;;5051113;28;20041;-81
2022/10/14 01:47:50;;;;;;;227.00;18.05;;;11.10;99.90;;;;;;5034095;28;20033;-80
2022/10/14 01:50:19;;;;;;;154.48;15.07;;;11.10;99.90;;;;;;5034179;28;20041;-80
2022/10/14 01:52:51;;;;;;;107.10;14.00;;;11.10;99.90;;;;;;5050603;28;20120;-80
2022/10/14 01:55:24;;;;;;;153.52;15.70;;;11.10;99.90;;;;;;5051119;28;20491;-80
2022/10/14 01:57:52;;;;;;;147.83;15.40;;;11.10;99.90;;;;;;5050831;28;20036;-81
2022/10/14 02:00:18;;;;;;;113.88;12.70;;;11.10;99.90;;;;;;5034593;28;20676;-81
2022/10/14 02:02:44;;;;;;;128.32;13.73;;;11.10;99.90;;;;;;5050715;28;20052;-81
2022/10/14 02:05:36;;;;;;;90.13;11.73;;;11.00;99.90;;;;;;5050942;28;20110;-81
2022/10/14 02:08:39;;;;;;;33.33;9.30;;;11.10;99.90;;;;;;5034466;28;20437;-81
2022/10/14 02:11:14;;;;;;;171.75;14.07;;;11.10;99.90;;;;;;5022444;28;20533;-81
2022/10/14 02:14:01;;;;;;;153.18;15.35;;;11.00;99.90;;;;;;5050339;28;20052;-81
2022/10/14 02:16:47;;;;;;;81.75;11.43;;;11.00;99.90;;;;;;5050637;28;20040;-81
2022/10/14 02:19:56;;;;;;;165.02;12.75;;;10.90;99.90;;;;;;5034226;28;20069;-80
2022/10/14 02:22:30;;;;;;;147.57;12.50;;;10.90;99.90;;;;;;4993925;28;20049;-81
2022/10/14 02:25:01;;;;;;;234.82;16.15;;;10.90;99.90;;;;;;5034002;28;20037;-81
2022/10/14 02:27:28;;;;;;;164.23;13.30;;;10.90;99.90;;;;;;5050401;28;20099;-81
2022/10/14 02:29:55;;;;;;;133.45;11.73;;;10.90;99.90;;;;;;5050446;28;20044;-81
2022/10/14 02:32:23;;;;;;;173.73;11.95;;;10.90;99.90;;;;;;5050145;28;20560;-81
2022/10/14 02:34:53;;;;;;;42.60;8.77;;;10.90;99.90;;;;;;5050462;28;20037;-81
2022/10/14 02:37:21;;;;;;;98.45;11.50;;;10.90;99.90;;;;;;5049235;28;20041;-81
2022/10/14 02:39:54;;;;;;;98.25;9.63;;;10.90;99.90;;;;;;5050216;28;20033;-81
2022/10/14 02:42:20;;;;;;;183.00;13.27;;;10.90;99.90;;;;;;5049842;28;20068;-81
2022/10/14 02:44:57;;;;;;;70.10;8.57;;;10.80;99.90;;;;;;5050502;28;20079;-80
2022/10/14 02:47:24;;;;;;;136.68;10.38;;;10.80;99.90;;;;;;5050361;28;20044;-80
2022/10/14 02:49:50;;;;;;;132.20;11.07;;;10.80;99.90;;;;;;5050607;28;20440;-81
2022/10/14 02:52:17;;;;;;;152.07;11.90;;;10.80;99.90;;;;;;5033497;28;20090;-81
2022/10/14 02:54:42;;;;;;;122.72;11.50;;;10.80;99.90;;;;;;5050245;28;20037;-80
2022/10/14 02:57:08;;;;;;;149.70;12.55;;;10.80;99.90;;;;;;5050379;28;20044;-81
2022/10/14 02:59:34;;;;;;;195.55;13.00;;;10.70;99.90;;;;;;5035975;28;20043;-81
2022/10/14 03:01:59;;;;;;;173.75;11.18;;;10.70;99.90;;;;;;5053861;28;20091;-81
2022/10/14 03:04:25;;;;;;;132.07;11.23;;;10.70;99.90;;;;;;5053998;28;20047;-82
2022/10/14 03:06:50;;;;;;;312.00;21.02;;;10.70;99.90;;;;;;5037146;28;20123;-81
2022/10/14 03:09:16;;;;;;;181.10;12.75;;;10.70;99.90;;;;;;5037031;28;20051;-81
2022/10/14 03:11:41;;;;;;;104.55;10.82;;;10.70;99.90;;;;;;5053125;28;20410;-81
2022/10/14 03:14:07;;;;;;;146.63;12.80;;;10.70;99.90;;;;;;5036701;28;20032;-81
2022/10/14 03:16:32;;;;;;;95.18;11.93;;;10.70;99.90;;;;;;5053091;28;20046;-81
2022/10/14 03:18:58;;;;;;;155.68;13.82;;;10.70;99.90;;;;;;5054177;28;20033;-81
2022/10/14 03:21:23;;;;;;;30.13;8.75;;;10.70;99.90;;;;;;5053147;28;20052;-81
2022/10/14 03:23:49;;;;;;;205.57;16.15;;;10.70;99.90;;;;;;5053044;28;20033;-82
2022/10/14 03:26:15;;;;;;;47.63;9.82;;;10.70;99.90;;;;;;5036684;28;20513;-82
2022/10/14 03:28:40;;;;;;;188.77;14.48;;;10.70;99.90;;;;;;5053008;28;20075;-81
2022/10/14 03:31:06;;;;;;;44.40;8.95;;;10.70;99.90;;;;;;5053022;28;20183;-81
2022/10/14 03:33:32;;;;;;;177.98;12.77;;;10.70;99.90;;;;;;5036308;28;20044;-82
2022/10/14 03:35:57;;;;;;;72.03;11.32;;;10.70;99.90;;;;;;5052846;28;20511;-81
2022/10/14 03:38:23;;;;;;;122.78;13.07;;;10.70;99.90;;;;;;5052750;28;20521;-81
2022/10/14 03:40:48;;;;;;;49.25;9.70;;;10.70;99.90;;;;;;5052739;28;20033;-81
2022/10/14 03:43:14;;;;;;;153.07;11.52;;;10.70;99.90;;;;;;5052415;28;20033;-81
2022/10/14 03:45:39;;;;;;;101.53;10.38;;;10.70;99.90;;;;;;5053010;28;20091;-81
2022/10/14 03:48:05;;;;;;;70.60;9.25;;;10.60;99.90;;;;;;5036141;28;20116;-82
2022/10/14 03:50:31;;;;;;;183.70;11.98;;;10.60;99.90;;;;;;5052393;28;20040;-81
2022/10/14 03:52:56;;;;;;;106.28;10.68;;;10.60;99.90;;;;;;5052236;28;20033;-82
2022/10/14 03:55:22;;;;;;;92.97;10.30;;;10.60;99.90;;;;;;5052811;28;20048;-81
2022/10/14 03:57:48;;;;;;;77.93;10.82;;;10.60;99.90;;;;;;5035922;28;20074;-81
2022/10/14 04:00:13;;;;;;;61.30;9.82;;;10.60;99.90;;;;;;5052201;28;20036;-82
2022/10/14 04:02:39;;;;;;;99.63;11.70;;;10.60;99.90;;;;;;5035689;28;20037;-81
2022/10/14 04:05:05;;;;;;;91.47;11.38;;;10.60;99.90;;;;;;5035686;28;20041;-82
2022/10/14 04:07:31;;;;;;;66.97;10.60;;;10.60;99.90;;;;;;5052230;28;20521;-82
2022/10/14 04:09:56;;;;;;;43.03;9.82;;;10.60;99.90;;;;;;5035540;28;20491;-82
2022/10/14 04:12:22;;;;;;;61.17;10.18;;;10.60;99.90;;;;;;5034976;28;20048;-82
2022/10/14 04:14:47;;;;;;;69.72;11.13;;;10.60;99.90;;;;;;5035338;28;20036;-81
2022/10/14 04:17:13;;;;;;;165.25;12.38;;;10.60;99.90;;;;;;5052377;28;20095;-82
2022/10/14 04:19:39;;;;;;;164.70;13.07;;;10.60;99.90;;;;;;5035658;28;20048;-82
2022/10/14 04:22:04;;;;;;;225.02;13.90;;;10.50;99.90;;;;;;5035770;28;20041;-82
2022/10/14 04:24:30;;;;;;;193.90;13.38;;;10.50;99.90;;;;;;5051819;28;20044;-81
2022/10/14 04:26:56;;;;;;;137.70;10.30;;;10.40;99.90;;;;;;5035071;28;20041;-82
2022/10/14 04:29:22;;;;;;;88.15;9.35;;;10.40;99.90;;;;;;5035216;28;20047;-82
2022/10/14 04:31:47;;;;;;;99.03;9.70;;;10.40;99.90;;;;;;5051309;28;20495;-82
2022/10/14 04:34:13;;;;;;;96.97;9.38;;;10.40;99.90;;;;;;5051484;28;20032;-82
2022/10/14 04:36:39;;;;;;;94.63;9.43;;;10.40;99.90;;;;;;5052107;28;20029;-81
2022/10/14 04:39:04;;;;;;;25.10;6.95;;;10.40;99.90;;;;;;5043077;28;20025;-82
2022/10/14 04:41:30;;;;;;;81.40;10.07;;;10.40;99.90;;;;;;5051142;28;20106;-82
2022/10/14 04:43:56;;;;;;;87.20;9.13;;;10.40;99.90;;;;;;5051398;28;20049;-82
2022/10/14 04:46:21;;;;;;;75.32;9.23;;;10.40;99.90;;;;;;5051526;28;20414;-82
2022/10/14 04:48:47;;;;;;;135.05;11.25;;;10.40;99.90;;;;;;5034774;28;20040;-81
2022/10/14 04:51:13;;;;;;;23.77;7.03;;;10.40;99.90;;;;;;5050862;28;20044;-81
2022/10/14 04:53:39;;;;;;;358.58;17.88;;;10.40;99.90;;;;;;5051464;28;20040;-82
2022/10/14 04:56:05;;;;;;;110.00;12.40;;;10.40;99.90;;;;;;5034585;28;20030;-82
2022/10/14 04:58:30;;;;;;;73.53;7.80;;;10.40;99.90;;;;;;5051302;28;20124;-83
2022/10/14 05:00:56;;;;;;;159.25;10.70;;;10.40;99.90;;;;;;5051025;28;20041;-81
2022/10/14 05:03:21;;;;;;;113.18;9.48;;;10.40;99.90;;;;;;5034499;28;20051;-81
2022/10/14 05:05:48;;;;;;;132.85;10.80;;;10.40;99.90;;;;;;5034658;28;20051;-82
2022/10/14 05:08:14;;;;;;;63.33;9.98;;;10.30;99.90;;;;;;5051075;28;20037;-82
2022/10/14 05:10:40;;;;;;;76.80;10.35;;;10.30;99.90;;;;;;5051276;28;20033;-82
2022/10/14 05:13:05;;;;;;;168.65;12.27;;;10.30;99.90;;;;;;5050406;28;20049;-82
2022/10/14 05:15:31;;;;;;;50.42;9.43;;;10.30;99.90;;;;;;5050961;28;20452;-82
2022/10/14 05:17:57;;;;;;;64.55;8.82;;;10.30;99.90;;;;;;5034910;28;20071;-82
2022/10/14 05:20:22;;;;;;;77.60;10.23;;;10.30;99.90;;;;;;5050890;28;20037;-81
2022/10/14 05:22:48;;;;;;;44.05;9.55;;;10.30;99.90;;;;;;5050381;28;20099;-81
2022/10/14 05:25:14;;;;;;;62.78;10.02;;;10.30;99.90;;;;;;5050419;28;20045;-82
2022/10/14 05:27:39;;;;;;;85.10;10.98;;;10.40;99.90;;;;;;5051129;28;20453;-82
2022/10/14 05:30:05;;;;;;;27.77;9.98;;;10.30;99.90;;;;;;5034089;28;20041;-82
2022/10/14 05:32:30;;;;;;;51.60;9.27;;;10.40;99.90;;;;;;5050323;28;20045;-82
2022/10/14 05:34:56;;;;;;;53.90;10.48;;;10.30;99.90;;;;;;5051409;28;20175;-82
2022/10/14 05:37:22;;;;;;;40.33;9.90;;;10.40;99.90;;;;;;5033961;28;20174;-82
2022/10/14 05:39:47;;;;;;;63.10;10.68;;;10.40;99.90;;;;;;5034571;28;20124;-81
2022/10/14 05:42:13;;;;;;;82.05;11.50;;;10.40;99.90;;;;;;5034111;28;20048;-82
2022/10/14 05:44:38;;;;;;;51.25;12.45;;;10.40;99.90;;;;;;5050936;28;20098;-83
2022/10/14 05:47:04;;;;;;;63.15;11.80;;;10.40;99.90;;;;;;5034087;28;20530;-82
2022/10/14 05:49:29;;;;;;;65.07;12.43;;;10.40;99.90;;;;;;5050567;28;20037;-81
2022/10/14 05:51:55;;;;;;;130.35;14.50;;;10.40;99.90;;;;;;5034145;28;20086;-83
2022/10/14 05:54:20;;;;;;;61.88;13.05;;;10.40;99.90;;;;;;5034038;28;20045;-82
2022/10/14 05:56:46;;;;;;;87.68;13.60;;;10.40;99.90;;;;;;5033701;28;20391;-82
2022/10/14 05:59:11;;;;;;;41.78;11.77;;;10.40;99.90;;;;;;5034163;28;20055;-82
2022/10/14 06:01:38;;;;;;;61.92;12.90;;;10.40;99.90;;;;;;5033710;28;20477;-82
2022/10/14 06:04:04;;;;;;;45.75;12.02;;;10.40;99.90;;;;;;5050447;28;20041;-82
2022/10/14 06:06:29;;;;;;;56.45;13.15;;;10.50;99.90;;;;;;5050255;28;20094;-82
2022/10/14 06:08:55;;;;;;;59.92;13.10;;;10.50;99.90;;;;;;5035175;28;20045;-82
2022/10/14 06:11:21;;;;;;;44.45;13.02;;;10.50;99.90;;;;;;5050000;28;20048;-82
2022/10/14 06:13:47;;;;;;;93.85;15.60;;;10.60;99.90;;;;;;5050517;28;20029;-82
2022/10/14 06:16:12;;;;;;;47.53;13.15;;;10.60;99.90;;;;;;5033904;28;20510;-82
2022/10/14 06:18:38;;;;;;;33.83;12.43;;;10.60;99.90;;;;;;5050635;28;20506;-82
2022/10/14 06:21:04;;;;;;;32.65;13.68;;;10.60;99.90;;;;;;5049989;28;20257;-82
2022/10/14 06:23:30;;;;;;;90.57;15.02;;;10.60;99.90;;;;;;5049887;28;20262;-81
2022/10/14 06:25:56;;;;;;;95.45;15.65;;;10.60;99.90;;;;;;5050390;28;20072;-82
2022/10/14 06:28:21;;;;;;;54.97;14.82;;;10.70;99.90;;;;;;5050222;28;20064;-82
2022/10/14 06:30:54;;;;;;;90.90;15.32;;;10.70;99.90;;;;;;5044193;28;20088;-81
2022/10/14 06:33:20;;;;;;;85.60;15.63;;;10.70;99.90;;;;;;5044510;28;20494;-81
2022/10/14 06:35:46;;;;;;;59.03;15.55;;;10.70;99.90;;;;;;5037649;28;20376;-82
2022/10/14 06:38:12;;;;;;;37.70;13.98;;;10.70;99.90;;;;;;5053812;28;20040;-82
2022/10/14 06:40:38;;;;;;;71.85;15.88;;;10.70;99.90;;;;;;5035694;28;20041;-81
2022/10/14 06:43:03;;;;;;;77.47;17.38;;;10.70;99.90;;;;;;5037422;28;20045;-82
2022/10/14 06:45:29;;;;;;;76.15;15.90;;;10.80;99.90;;;;;;5055522;28;20056;-83
2022/10/14 06:47:55;;;;;;;42.70;14.35;;;10.80;99.90;;;;;;5054336;28;20522;-82
2022/10/14 06:50:21;;;;;;;52.70;15.45;;;10.80;99.90;;;;;;5053870;28;20688;-82
2022/10/14 06:52:46;;;;;;;86.25;16.38;;;10.80;99.90;;;;;;5053369;28;20033;-82
2022/10/14 06:55:13;;;;;;;53.05;14.60;;;10.80;99.90;;;;;;5037894;28;20051;-82
2022/10/14 06:57:38;;;;;;;68.53;15.82;;;10.80;99.90;;;;;;5053892;28;20052;-82
2022/10/14 07:00:05;;;;;;;40.47;14.88;;;10.90;99.90;;;;;;5036787;28;20029;-82
2022/10/14 07:02:30;;;;;;;88.97;17.48;;;10.90;99.90;;;;;;5053620;28;20040;-81
2022/10/14 07:04:56;;;;;;;51.42;14.68;;;10.90;99.90;;;;;;5053884;28;20056;-81
2022/10/14 07:07:21;;;;;;;65.53;16.55;;;10.90;99.90;;;;;;5037096;28;20048;-81
2022/10/14 07:09:47;;;;;;;79.40;17.52;;;10.90;99.90;;;;;;5053453;28;20045;-82
2022/10/14 07:12:13;;;;;;;82.55;17.65;;;10.90;99.90;;;;;;5053160;28;20044;-82
2022/10/14 07:14:39;;;;;;;74.45;18.02;;;11.00;99.90;;;;;;5053553;28;20426;-81
2022/10/14 07:17:06;;;;;;;46.90;16.92;;;11.00;99.90;;;;;;5036829;28;20028;-81
2022/10/14 07:19:32;;;;;;;59.92;16.88;;;11.00;99.90;;;;;;5053695;28;20029;-83
2022/10/14 07:21:58;;;;;;;42.72;15.93;;;11.10;99.90;;;;;;5052903;28;20036;-82
2022/10/14 07:24:23;;;;;;;45.10;15.93;;;11.10;99.90;;;;;;5053357;28;20055;-81
2022/10/14 07:26:49;;;;;;;48.67;16.70;;;11.10;99.90;;;;;;5053315;28;20124;-82
2022/10/14 07:29:14;;;;;;;44.67;15.98;;;11.20;99.90;;;;;;5036709;28;20037;-82
2022/10/14 07:31:40;;;;;;;63.22;17.45;;;11.20;99.90;;;;;;5052991;28;20049;-82
2022/10/14 07:34:06;;;;;;;63.20;18.25;;;11.30;99.90;;;;;;5052984;28;20068;-82
2022/10/14 07:36:31;;;;;;;52.80;16.58;;;11.30;99.90;;;;;;5036649;28;20060;-82
2022/10/14 07:38:57;;;;;;;65.85;18.48;;;11.30;99.90;;;;;;5053483;28;20025;-82
2022/10/14 07:41:24;;;;;;;47.85;18.30;;;11.30;99.90;;;;;;5036304;28;20563;-82
2022/10/14 07:43:52;;;;;;;45.13;17.00;;;11.30;99.90;;;;;;5054380;28;20041;-81
2022/10/14 07:46:28;;;;;;;70.18;18.92;;;11.30;99.90;;;;;;5036761;28;20048;-82
2022/10/14 07:48:55;;;;;;;46.70;17.92;;;11.30;99.90;;;;;;5052976;28;20117;-81
2022/10/14 07:51:21;;;;;;;43.50;16.60;;;11.30;99.90;;;;;;5053057;28;20094;-82
2022/10/14 07:53:47;;;;;;;47.28;17.98;;;11.30;99.90;;;;;;5053254;28;20124;-82
2022/10/14 07:56:13;;;;;;;46.22;17.80;;;11.30;99.90;;;;;;5036401;28;20037;-82
2022/10/14 07:58:38;;;;;;;44.85;16.80;;;11.30;99.90;;;;;;5052619;28;20033;-81
2022/10/14 08:01:04;;;;;;;51.97;17.45;;;11.30;99.90;;;;;;5052510;28;20119;-82
2022/10/14 08:03:29;;;;;;;42.65;17.50;;;11.30;99.90;;;;;;5035892;28;20473;-82
2022/10/14 08:06:03;;;;;;;45.78;17.50;;;11.40;99.90;;;;;;5053327;28;20045;-80
2022/10/14 08:08:29;;;;;;;;;;;11.40;99.90;;;;;;5036568;28;20114;-83
2022/10/14 08:11:02;;;;;;;43.38;17.38;;;11.40;99.90;;;;;;5052791;28;19917;-81
2022/10/14 08:13:29;;;;;;;51.28;18.10;;;11.40;99.90;;;;;;5052675;28;20033;-83
2022/10/14 08:15:54;;;;;;;40.50;18.02;;;11.40;99.90;;;;;;5036016;28;20037;-82
2022/10/14 08:18:20;;;;;;;45.30;17.23;;;11.50;99.90;;;;;;5052531;28;20044;-80
2022/10/14 08:20:45;;;;;;;48.38;19.60;;;11.50;99.90;;;;;;5036106;28;20036;-81
2022/10/14 08:23:12;;;;;;;46.50;18.88;;;11.50;99.90;;;;;;5052480;28;20044;-82
2022/10/14 08:25:39;;;;;;;43.75;19.08;;;11.60;99.90;;;;;;5035362;28;20086;-83
2022/10/14 08:28:04;;;;;;;46.75;19.67;;;11.60;99.90;;;;;;5052254;28;20037;-81
2022/10/14 08:30:30;;;;;;;42.90;19.27;;;11.60;99.90;;;;;;5052606;28;20047;-81
2022/10/14 08:32:56;;;;;;;42.10;19.67;;;11.60;99.90;;;;;;5052311;28;20037;-80
2022/10/14 08:35:21;;;;;;;42.88;19.88;;;11.70;99.90;;;;;;5052207;28;20041;-81
2022/10/14 08:37:58;;;;;;;44.58;19.80;;;11.70;99.90;;;;;;5052632;28;20036;-80
2022/10/14 08:40:25;;;;;;;39.83;20.23;;;11.80;99.90;;;;;;5033467;28;20041;-80
2022/10/14 08:43:05;;;;;;;39.08;18.75;;;11.80;99.90;;;;;;5052740;28;20059;-81
2022/10/14 08:45:45;;;;;;;45.42;20.63;;;11.80;99.90;;;;;;5052484;28;20098;-82
2022/10/14 08:48:19;;;;;;;41.65;20.63;;;11.90;99.90;;;;;;5052059;28;20050;-83
2022/10/14 08:51:01;;;;;;;45.45;21.10;;;11.90;99.90;;;;;;5051447;28;20182;-81
2022/10/14 08:53:51;;;;;;;45.50;20.65;;;11.90;99.90;;;;;;5052608;28;20528;-81
2022/10/14 08:56:17;;;;;;;44.38;21.15;;;12.00;99.90;;;;;;5052043;28;20406;-80
2022/10/14 08:58:47;;;;;;;44.08;22.00;;;12.00;99.90;;;;;;5035440;28;20029;-81
2022/10/14 09:01:30;;;;;;;47.22;21.88;;;12.10;99.90;;;;;;5034753;28;20037;-82
2022/10/14 09:04:02;;;;;;;41.60;20.80;;;12.10;99.90;;;;;;5035275;28;20492;-80
2022/10/14 09:06:30;;;;;;;41.33;20.92;;;12.10;99.90;;;;;;5051923;28;20041;-80
2022/10/14 09:09:15;;;;;;;42.70;21.05;;;12.10;99.90;;;;;;5051644;28;20045;-81
2022/10/14 09:11:45;;;;;;;41.58;20.83;;;12.20;99.90;;;;;;5034741;28;20095;-81
2022/10/14 09:14:21;;;;;;;38.47;19.38;;;12.20;99.90;;;;;;5051535;28;20422;-81
2022/10/14 09:16:51;;;;;;;38.45;19.05;;;12.20;99.90;;;;;;5034921;28;20048;-81
2022/10/14 09:19:36;;;;;;;36.70;19.42;;;12.20;99.90;;;;;;5052581;28;20048;-81
2022/10/14 09:22:08;;;;;;;38.03;20.27;;;12.20;99.90;;;;;;5050883;28;20037;-81
2022/10/14 09:24:34;;;;;;;38.88;19.42;;;12.20;99.90;;;;;;5050905;28;20037;-82
2022/10/14 09:27:06;;;;;;;40.30;20.33;;;12.10;99.90;;;;;;5050910;28;20086;-80
2022/10/14 09:29:47;;;;;;;42.45;21.23;;;12.20;99.90;;;;;;5041331;28;20041;-82
2022/10/14 09:32:25;;;;;;;43.08;19.98;;;12.30;99.90;;;;;;5048834;28;20087;-81
2022/10/14 09:34:51;;;;;;;40.50;21.15;;;12.30;99.90;;;;;;5050941;28;20503;-81
2022/10/14 09:37:29;;;;;;;41.08;21.42;;;12.30;99.90;;;;;;5034192;28;20036;-80
2022/10/14 09:40:00;;;;;;;43.40;21.00;;;12.40;99.90;;;;;;5051039;28;20577;-82
2022/10/14 09:43:01;;;;;;;38.60;21.25;;;12.40;99.90;;;;;;5050369;28;20037;-82
2022/10/14 09:45:37;;;;;;;41.80;21.85;;;12.50;99.90;;;;;;5027498;28;20079;-82
2022/10/14 09:48:07;;;;;;;42.90;22.25;;;12.60;99.90;;;;;;5050859;28;20043;-81
2022/10/14 09:50:41;;;;;;;43.53;22.02;;;12.60;99.90;;;;;;5050798;28;20122;-82
2022/10/14 09:53:26;;;;;;;43.70;22.67;;;12.70;99.90;;;;;;5033755;28;20033;-82
2022/10/14 09:55:58;;;;;;;41.00;22.20;;;12.70;99.90;;;;;;5050367;28;20487;-82
2022/10/14 09:58:43;;;;;;;39.47;22.15;;;12.70;99.90;;;;;;5033906;28;20029;-81
2022/10/14 10:01:25;;;;;;;40.10;22.33;;;12.70;99.90;;;;;;5034023;28;20079;-82
2022/10/14 10:03:52;;;;;;;38.35;20.30;;;12.80;99.90;;;;;;5033934;28;20053;-82
2022/10/14 10:06:22;;;;;;;38.15;21.85;;;12.70;99.90;;;;;;5050467;28;20515;-82
2022/10/14 10:08:57;;;;;;;37.80;20.23;;;12.80;99.90;;;;;;5037129;28;20110;-82
2022/10/14 10:11:40;;;;;;;37.78;20.48;;;12.70;99.90;;;;;;5037631;28;20052;-83
2022/10/14 10:14:16;;;;;;;38.83;19.98;;;12.70;99.90;;;;;;5055049;28;20098;-79
2022/10/14 10:16:41;;;;;;;40.08;19.85;;;12.80;99.90;;;;;;5038813;28;20542;-81
2022/10/14 10:19:27;;;;;;;39.05;20.88;;;12.80;99.90;;;;;;5055251;28;20048;-80
2022/10/14 10:21:53;;;;;;;38.45;19.92;;;12.90;99.90;;;;;;5054994;28;20083;-81
2022/10/14 10:24:22;;;;;;;36.10;19.25;;;12.90;99.90;;;;;;5055381;28;20036;-80
2022/10/14 10:26:48;;;;;;;38.13;20.20;;;12.90;99.90;;;;;;5054972;28;20037;-81
2022/10/14 10:29:30;;;;;;;36.35;20.15;;;13.00;99.90;;;;;;5055199;28;20032;-80
2022/10/14 10:31:56;;;;;;;38.33;20.13;;;13.00;99.90;;;;;;5037951;28;20041;-80
2022/10/14 10:34:43;;;;;;;31.67;16.58;;;13.10;99.90;;;;;;5055185;28;20041;-81
2022/10/14 10:37:25;;;;;;;33.97;16.40;;;13.10;99.90;;;;;;5040623;28;20033;-81
2022/10/14 10:40:02;;;;;;;28.15;15.93;;;13.20;99.90;;;;;;5055423;28;20044;-81
2022/10/14 10:42:38;;;;;;;31.60;17.45;;;13.20;99.90;;;;;;5040016;28;20398;-81
2022/10/14 10:45:29;;;;;;;30.65;16.58;;;13.20;99.90;;;;;;5054847;28;20055;-82
2022/10/14 10:48:25;;;;;;;26.00;15.68;;;13.30;99.90;;;;;;5054571;28;20041;-81
2022/10/14 10:50:59;;;;;;;25.85;14.75;;;13.30;99.90;;;;;;5037613;28;20051;-80
2022/10/14 10:54:02;;;;;;;25.92;13.85;;;13.40;99.90;;;;;;5054529;28;20083;-82
2022/10/14 10:56:33;;;;;;;22.60;13.07;;;13.30;99.90;;;;;;4988617;28;20047;-81
2022/10/14 10:59:09;;;;;;;24.45;13.25;;;13.30;99.90;;;;;;5054543;28;20033;-81
2022/10/14 11:01:49;;;;;;;22.35;12.38;;;13.20;99.90;;;;;;5037365;28;20115;-82
2022/10/14 11:04:29;;;;;;;20.95;11.88;;;13.20;99.90;;;;;;5038084;28;20132;-81
2022/10/14 11:14:04;;;;;;;17.40;9.77;;;13.10;99.90;;;;;;5054424;28;20049;-80
2022/10/14 11:16:51;;;;;;;21.35;11.55;;;13.20;99.90;;;;;;5054518;28;20037;-80
2022/10/14 11:19:17;;;;;;;20.00;10.50;;;13.20;99.90;;;;;;5036919;28;20041;-81
2022/10/14 11:21:53;;;;;;;20.63;10.25;;;13.20;99.90;;;;;;5054083;28;20453;-79
2022/10/14 11:24:45;;;;;;;21.05;11.13;;;13.20;99.90;;;;;;5037478;28;20037;-80
2022/10/14 11:27:23;;;;;;;22.00;10.82;;;13.30;99.90;;;;;;5037720;28;20041;-80
2022/10/14 11:30:19;;;;;;;20.02;10.73;;;13.20;99.90;;;;;;5037537;28;20044;-81
2022/10/14 11:33:27;;;;;;;21.98;9.75;;;13.30;99.90;;;;;;5053749;28;20051;-80
2022/10/14 11:36:17;;;;;;;19.00;9.43;;;13.30;99.90;;;;;;5054293;28;20072;-80
2022/10/14 11:38:55;;;;;;;17.67;9.55;;;13.40;99.90;;;;;;5053922;28;20040;-80
2022/10/14 11:41:35;;;;;;;16.73;8.98;;;13.40;99.90;;;;;;5037207;28;20380;-80
2022/10/14 11:44:22;;;;;;;14.80;8.18;;;13.50;99.90;;;;;;5053693;28;20037;-80
2022/10/14 11:46:52;;;;;;;14.90;7.90;;;13.50;99.90;;;;;;5054376;28;20074;-78
2022/10/14 11:49:24;;;;;;;14.80;8.20;;;13.50;99.90;;;;;;5053380;28;20044;-81
2022/10/14 11:51:58;;;;;;;15.95;8.52;;;13.60;99.90;;;;;;5053897;28;20056;-79
2022/10/14 11:54:45;;;;;;;15.50;8.27;;;13.60;99.90;;;;;;5036661;28;20577;-80
2022/10/14 11:57:34;;;;;;;12.43;7.50;;;13.50;99.90;;;;;;5036620;28;20112;-80
2022/10/14 12:00:05;;;;;;;13.93;7.80;;;13.50;99.90;;;;;;5036770;28;20068;-81
2022/10/14 12:02:40;;;;;;;12.60;7.60;;;13.50;99.90;;;;;;5036573;28;20513;-80
2022/10/14 12:05:37;;;;;;;14.00;7.60;;;13.50;99.90;;;;;;5037007;28;20083;-81
2022/10/14 12:08:26;;;;;;;12.25;7.13;;;13.60;99.90;;;;;;5053509;28;20443;-81
2022/10/14 12:11:04;;;;;;;14.20;8.00;;;13.50;99.90;;;;;;5053426;28;20045;-79
2022/10/14 12:13:45;;;;;;;13.82;7.75;;;13.50;99.90;;;;;;5034519;28;20033;-80
2022/10/14 12:16:17;;;;;;;14.82;8.23;;;13.50;99.90;;;;;;5045644;28;20041;-80
2022/10/14 12:18:48;;;;;;;15.75;8.52;;;13.50;99.90;;;;;;5036534;28;20036;-79
2022/10/14 12:21:26;;;;;;;14.15;8.40;;;13.50;99.90;;;;;;5053054;28;20041;-80
2022/10/14 12:24:03;;;;;;;13.00;7.63;;;13.50;99.90;;;;;;5052820;28;20040;-79
2022/10/14 12:26:45;;;;;;;17.00;8.30;;;13.50;99.90;;;;;;5036698;28;20041;-81
2022/10/14 12:29:19;;;;;;;14.90;8.23;;;13.50;99.90;;;;;;5036567;28;20044;-80
2022/10/14 12:32:19;;;;;;;16.42;8.48;;;13.50;99.90;;;;;;5035214;28;20123;-80
2022/10/14 12:34:56;;;;;;;13.00;7.65;;;13.40;99.90;;;;;;5036152;28;20113;-81
2022/10/14 12:37:31;;;;;;;14.60;8.45;;;13.40;99.90;;;;;;5053227;28;20055;-80
2022/10/14 12:40:04;;;;;;;13.02;7.65;;;13.40;99.90;;;;;;5037189;28;20120;-79
2022/10/14 12:42:43;;;;;;;14.43;8.88;;;13.40;99.90;;;;;;5025662;28;20465;-80
2022/10/14 12:45:19;;;;;;;12.50;8.20;;;13.40;99.90;;;;;;5035669;28;20570;-79
2022/10/14 12:47:45;;;;;;;12.70;7.80;;;13.40;99.90;;;;;;5053129;28;20069;-81
2022/10/14 12:50:14;;;;;;;13.98;8.55;;;13.50;99.90;;;;;;5035871;28;20396;-80
2022/10/14 12:52:43;;;;;;;13.75;8.35;;;13.40;99.90;;;;;;5052301;28;20094;-79